Portada
METAR-TAF:

METAR-TAF

Aeroports :

Saga, Japó

latitud: 33-09N, longitud: 130-18E, altitud: 2 m

Observació

L'informe es va fer fa 3 hores i 13 minuts, a les 14:00 UTC
Vent 5 kt del Nord
Temperatura 4°C
Humitat 75%
Pressió 1028 hPa
Visibilitat 10 km o més
sense núvols per sota de 1500 mi sense presència de cumulonimbus.

METAR: RJFS 271400Z 01005KT CAVOK 04/00 Q1028

Hora: 02:13 (17:13 UTC)

Pronòstic

L'informe es va fer fa 6 hores i 5 minuts, a les 11:08 UTC
Pronòstic vàlid del 27 a les 12 UTC al 28 a les 18 UTC
Vent 11 kt del Nord/Nord-Est
Visibilitat 10 km o més
Escasses núvols a una alçada de 3000 ft
Temporalment
l' 28 a les 15 UTC al 28 a les 18 UTC
Visibilitat: 4000 m
xàfecs de pluja, boirina

TAF: RJFS 271108Z 2712/2818 03011KT 9999 FEW030 TEMPO 2815/2818 4000 -SHRA BR

Observacions i pronòstics meteorològics de més de 4000 aeroports (METAR i TAF).

Les estacions disponibles són els punts grocs i vermells al mapa.

Posi el ratolí al punt desitjat per veure el nom de l'estació.

Feu clic per veure les observacions i els pronòstics meteorològics.

Per canviar el mapa: feu clic els botons verds amb una creu de color negre per apropar; al botó verd amb un guió per allunyar la imatge; o en les fletxes verdes per a mapes adjacents.


METAR-TAF: